ACI150 YBBN-NWWW
Flight info
| Callsign | ACI150 |
|---|---|
| Flight time | N/A |
| Altitude | 39000 |
| Route | GUMKI B578 TEBUR DCT NISAS NISAS2 |
| Aircraft | A20N/M-SDE2E3FGHIRWXY/LB1 |
Departure
| Time | 2026-05-08 07:09 |
|---|---|
| Airport | Brisbane International Airport (YBBN) |
Arrival
| Time | N/A |
|---|---|
| Airport | La Tontouta International Airport (NWWW) |
| Time | Latitude | Longitude | Altitude | Speed | Heading |
|---|---|---|---|---|---|
| 2026-05-08 06:46 | -27.40163 | 153.11223 | 18 ft | 0 kts | 297° |
| 2026-05-08 07:03 | -27.40170 | 153.11239 | 17 ft | 4 kts | 297° |
| 2026-05-08 07:03 | -27.40182 | 153.11266 | 19 ft | 3 kts | 297° |
| 2026-05-08 07:03 | -27.40193 | 153.11288 | 20 ft | 4 kts | 316° |
| 2026-05-08 07:04 | -27.40216 | 153.11302 | 17 ft | 4 kts | 355° |
| 2026-05-08 07:04 | -27.40242 | 153.11299 | 17 ft | 4 kts | 26° |
| 2026-05-08 07:04 | -27.40262 | 153.11285 | 19 ft | 2 kts | 31° |
| 2026-05-08 07:04 | -27.40263 | 153.11285 | 19 ft | 0 kts | 31° |
| 2026-05-08 07:06 | -27.40255 | 153.11291 | 19 ft | 3 kts | 31° |
| 2026-05-08 07:07 | -27.40233 | 153.11305 | 19 ft | 8 kts | 30° |
| 2026-05-08 07:07 | -27.40182 | 153.11363 | 17 ft | 13 kts | 77° |
| 2026-05-08 07:07 | -27.40218 | 153.11470 | 18 ft | 17 kts | 117° |
| 2026-05-08 07:07 | -27.40270 | 153.11584 | 18 ft | 13 kts | 116° |
| 2026-05-08 07:08 | -27.40295 | 153.11641 | 18 ft | 0 kts | 115° |
| 2026-05-08 07:08 | -27.40295 | 153.11642 | 18 ft | 1 kts | 115° |
| 2026-05-08 07:08 | -27.40313 | 153.11693 | 18 ft | 14 kts | 105° |
| 2026-05-08 07:08 | -27.40271 | 153.11827 | 20 ft | 22 kts | 35° |
| 2026-05-08 07:09 | -27.40055 | 153.11951 | 20 ft | 63 kts | 27° |
| 2026-05-08 07:09 | -27.39479 | 153.12281 | 22 ft | 120 kts | 26° |
| 2026-05-08 07:09 | -27.38610 | 153.12779 | 176 ft | 148 kts | 27° |
| 2026-05-08 07:09 | -27.37759 | 153.13431 | 667 ft | 154 kts | 40° |
| 2026-05-08 07:10 | -27.36984 | 153.14284 | 1199 ft | 159 kts | 45° |
| 2026-05-08 07:10 | -27.36249 | 153.15239 | 1737 ft | 164 kts | 47° |
| 2026-05-08 07:10 | -27.35427 | 153.16224 | 2092 ft | 182 kts | 43° |
| 2026-05-08 07:10 | -27.34469 | 153.17272 | 2448 ft | 203 kts | 41° |
| 2026-05-08 07:11 | -27.33390 | 153.18426 | 2841 ft | 225 kts | 41° |
| 2026-05-08 07:11 | -27.32216 | 153.19723 | 3293 ft | 249 kts | 49° |
| 2026-05-08 07:11 | -27.31330 | 153.21481 | 3902 ft | 271 kts | 66° |
| 2026-05-08 07:11 | -27.30573 | 153.23476 | 4800 ft | 280 kts | 70° |
| 2026-05-08 07:12 | -27.29852 | 153.25518 | 5859 ft | 284 kts | 71° |
| 2026-05-08 07:12 | -27.29143 | 153.27604 | 6872 ft | 289 kts | 71° |
| 2026-05-08 07:12 | -27.28426 | 153.29739 | 7848 ft | 294 kts | 71° |
| 2026-05-08 07:12 | -27.27699 | 153.31905 | 8792 ft | 299 kts | 70° |
| 2026-05-08 07:13 | -27.26955 | 153.34113 | 9744 ft | 305 kts | 70° |
| 2026-05-08 07:13 | -27.26192 | 153.36371 | 10505 ft | 317 kts | 69° |
| 2026-05-08 07:13 | -27.25376 | 153.38779 | 10869 ft | 342 kts | 69° |
| 2026-05-08 07:13 | -27.24512 | 153.41324 | 11320 ft | 360 kts | 69° |
| 2026-05-08 07:14 | -27.23613 | 153.43967 | 12160 ft | 365 kts | 69° |
| 2026-05-08 07:14 | -27.22702 | 153.46644 | 13044 ft | 369 kts | 69° |
| 2026-05-08 07:14 | -27.21778 | 153.49357 | 13911 ft | 374 kts | 68° |
| 2026-05-08 07:14 | -27.20995 | 153.51658 | 14532 ft | 379 kts | 68° |
| 2026-05-08 07:15 | -27.20043 | 153.54449 | 15240 ft | 386 kts | 68° |
| 2026-05-08 07:15 | -27.19075 | 153.57287 | 15949 ft | 392 kts | 68° |
| 2026-05-08 07:15 | -27.18089 | 153.60172 | 16653 ft | 398 kts | 68° |
| 2026-05-08 07:15 | -27.17088 | 153.63100 | 17335 ft | 405 kts | 68° |
| 2026-05-08 07:16 | -27.16074 | 153.66066 | 18017 ft | 411 kts | 67° |
| 2026-05-08 07:16 | -27.15041 | 153.69082 | 18652 ft | 416 kts | 67° |
| 2026-05-08 07:16 | -27.13994 | 153.72138 | 19245 ft | 422 kts | 67° |
| 2026-05-08 07:16 | -27.12934 | 153.75230 | 19834 ft | 427 kts | 67° |
| 2026-05-08 07:17 | -27.11859 | 153.78361 | 20431 ft | 433 kts | 66° |
| 2026-05-08 07:17 | -27.10769 | 153.81536 | 21014 ft | 438 kts | 66° |
| 2026-05-08 07:17 | -27.09666 | 153.84744 | 21591 ft | 444 kts | 66° |
| 2026-05-08 07:17 | -27.08549 | 153.87992 | 22169 ft | 449 kts | 66° |
| 2026-05-08 07:18 | -27.07800 | 153.90166 | 22543 ft | 453 kts | 66° |
| 2026-05-08 07:18 | -27.06269 | 153.94607 | 23308 ft | 459 kts | 65° |
| 2026-05-08 07:18 | -27.05503 | 153.96830 | 23684 ft | 463 kts | 65° |
| 2026-05-08 07:18 | -27.04335 | 154.00212 | 24153 ft | 468 kts | 65° |
| 2026-05-08 07:19 | -27.02768 | 154.04749 | 24766 ft | 474 kts | 65° |
| 2026-05-08 07:19 | -27.01961 | 154.07084 | 25080 ft | 477 kts | 64° |
| 2026-05-08 07:19 | -27.00755 | 154.10569 | 25522 ft | 482 kts | 64° |
| 2026-05-08 07:19 | -26.99137 | 154.15237 | 26091 ft | 488 kts | 64° |
| 2026-05-08 07:20 | -26.97902 | 154.18799 | 26509 ft | 492 kts | 64° |
| 2026-05-08 07:20 | -26.97060 | 154.21222 | 26789 ft | 495 kts | 64° |
| 2026-05-08 07:20 | -26.95822 | 154.24787 | 27191 ft | 500 kts | 63° |
| 2026-05-08 07:20 | -26.94554 | 154.28431 | 27586 ft | 504 kts | 63° |
| 2026-05-08 07:21 | -26.93274 | 154.32108 | 27962 ft | 509 kts | 63° |
| 2026-05-08 07:21 | -26.92843 | 154.33345 | 28088 ft | 510 kts | 63° |
| 2026-05-08 07:21 | -26.91566 | 154.37009 | 28454 ft | 514 kts | 63° |
| 2026-05-08 07:22 | -26.90257 | 154.40760 | 28813 ft | 519 kts | 62° |
| 2026-05-08 07:22 | -26.88937 | 154.44539 | 29174 ft | 522 kts | 62° |
| 2026-05-08 07:22 | -26.87608 | 154.48340 | 29515 ft | 526 kts | 62° |
| 2026-05-08 07:22 | -26.87517 | 154.48600 | 29538 ft | 526 kts | 62° |
| 2026-05-08 07:23 | -26.87403 | 154.48927 | 29566 ft | 527 kts | 62° |
| 2026-05-08 07:23 | -26.86059 | 154.52767 | 29913 ft | 531 kts | 62° |
| 2026-05-08 07:23 | -26.84706 | 154.56626 | 30234 ft | 534 kts | 62° |
| 2026-05-08 07:24 | -26.83343 | 154.60512 | 30548 ft | 537 kts | 61° |
| 2026-05-08 07:24 | -26.81973 | 154.64414 | 30873 ft | 540 kts | 61° |
| 2026-05-08 07:24 | -26.80594 | 154.68340 | 31192 ft | 543 kts | 61° |
| 2026-05-08 07:24 | -26.79210 | 154.72274 | 31575 ft | 543 kts | 61° |
| 2026-05-08 07:25 | -26.77824 | 154.76212 | 32001 ft | 543 kts | 61° |
| 2026-05-08 07:25 | -26.76439 | 154.80142 | 32400 ft | 543 kts | 61° |
| 2026-05-08 07:25 | -26.74702 | 154.85064 | 32906 ft | 543 kts | 60° |
| 2026-05-08 07:26 | -26.73294 | 154.89050 | 33312 ft | 543 kts | 60° |
| 2026-05-08 07:26 | -26.71909 | 154.92963 | 33696 ft | 543 kts | 60° |
| 2026-05-08 07:26 | -26.70533 | 154.96848 | 34070 ft | 543 kts | 60° |
| 2026-05-08 07:26 | -26.69145 | 155.00761 | 34396 ft | 543 kts | 60° |
| 2026-05-08 07:27 | -26.67751 | 155.04686 | 34718 ft | 542 kts | 60° |
| 2026-05-08 07:27 | -26.66354 | 155.08617 | 35033 ft | 542 kts | 60° |
| 2026-05-08 07:27 | -26.64963 | 155.12526 | 35333 ft | 542 kts | 60° |
| 2026-05-08 07:27 | -26.63570 | 155.16438 | 35636 ft | 542 kts | 60° |
| 2026-05-08 07:28 | -26.62178 | 155.20342 | 35925 ft | 541 kts | 60° |
| 2026-05-08 07:28 | -26.60779 | 155.24263 | 36204 ft | 541 kts | 60° |
| 2026-05-08 07:28 | -26.59384 | 155.28167 | 36481 ft | 541 kts | 60° |
| 2026-05-08 07:28 | -26.57988 | 155.32073 | 36752 ft | 541 kts | 59° |
| 2026-05-08 07:29 | -26.56592 | 155.35973 | 37021 ft | 540 kts | 59° |
| 2026-05-08 07:29 | -26.55198 | 155.39864 | 37277 ft | 540 kts | 59° |
| 2026-05-08 07:29 | -26.53802 | 155.43758 | 37532 ft | 540 kts | 59° |
| 2026-05-08 07:29 | -26.52406 | 155.47647 | 37781 ft | 540 kts | 59° |
| 2026-05-08 07:30 | -26.51010 | 155.51534 | 38025 ft | 539 kts | 59° |
| 2026-05-08 07:30 | -26.49614 | 155.55416 | 38257 ft | 539 kts | 59° |
| 2026-05-08 07:30 | -26.48217 | 155.59298 | 38490 ft | 539 kts | 59° |
| 2026-05-08 07:30 | -26.46818 | 155.63178 | 38719 ft | 538 kts | 59° |
| 2026-05-08 07:31 | -26.45423 | 155.67048 | 38923 ft | 538 kts | 59° |
| 2026-05-08 07:31 | -26.44027 | 155.70918 | 39082 ft | 537 kts | 59° |
| 2026-05-08 07:31 | -26.42631 | 155.74781 | 39099 ft | 536 kts | 58° |
| 2026-05-08 07:32 | -26.39788 | 155.82382 | 39103 ft | 534 kts | 58° |
| 2026-05-08 07:32 | -26.36912 | 155.90025 | 39100 ft | 534 kts | 58° |
| 2026-05-08 07:33 | -26.34046 | 155.97674 | 39099 ft | 534 kts | 58° |
| 2026-05-08 07:33 | -26.31178 | 156.05327 | 39098 ft | 534 kts | 58° |
| 2026-05-08 07:34 | -26.28308 | 156.12962 | 39098 ft | 534 kts | 58° |
| 2026-05-08 07:34 | -26.25432 | 156.20596 | 39095 ft | 534 kts | 58° |
| 2026-05-08 07:35 | -26.22550 | 156.28233 | 39101 ft | 534 kts | 58° |
| 2026-05-08 07:35 | -26.19668 | 156.35854 | 39096 ft | 534 kts | 58° |
| 2026-05-08 07:36 | -26.16777 | 156.43484 | 39096 ft | 534 kts | 58° |
| 2026-05-08 07:36 | -26.13886 | 156.51102 | 39087 ft | 534 kts | 57° |
| 2026-05-08 07:37 | -26.10991 | 156.58717 | 39091 ft | 534 kts | 57° |
| 2026-05-08 07:37 | -26.08090 | 156.66330 | 39092 ft | 534 kts | 57° |
| 2026-05-08 07:38 | -26.05187 | 156.73935 | 39088 ft | 534 kts | 57° |
| 2026-05-08 07:38 | -26.02280 | 156.81538 | 39089 ft | 534 kts | 57° |
| 2026-05-08 07:39 | -25.99367 | 156.89141 | 39087 ft | 534 kts | 57° |
| 2026-05-08 07:39 | -25.96449 | 156.96744 | 39086 ft | 535 kts | 57° |
| 2026-05-08 07:40 | -25.93528 | 157.04341 | 39083 ft | 535 kts | 57° |
| 2026-05-08 07:40 | -25.90602 | 157.11935 | 39086 ft | 535 kts | 57° |
| 2026-05-08 07:41 | -25.87691 | 157.19479 | 39083 ft | 535 kts | 57° |
| 2026-05-08 07:41 | -25.84756 | 157.27070 | 39084 ft | 535 kts | 57° |
| 2026-05-08 07:42 | -25.81817 | 157.34657 | 39082 ft | 535 kts | 57° |
| 2026-05-08 07:42 | -25.78873 | 157.42242 | 39081 ft | 535 kts | 57° |
| 2026-05-08 07:43 | -25.75925 | 157.49825 | 39079 ft | 535 kts | 57° |
| 2026-05-08 07:43 | -25.72970 | 157.57412 | 39082 ft | 535 kts | 57° |
| 2026-05-08 07:44 | -25.70011 | 157.64997 | 39080 ft | 536 kts | 57° |
| 2026-05-08 07:44 | -25.67048 | 157.72575 | 39077 ft | 536 kts | 57° |
| 2026-05-08 07:45 | -25.64082 | 157.80148 | 39089 ft | 536 kts | 57° |
| 2026-05-08 07:45 | -25.61109 | 157.87726 | 39078 ft | 536 kts | 57° |
| 2026-05-08 07:46 | -25.58151 | 157.95252 | 39081 ft | 536 kts | 57° |
| 2026-05-08 07:46 | -25.55171 | 158.02820 | 39075 ft | 536 kts | 57° |
| 2026-05-08 07:47 | -25.52186 | 158.10387 | 39078 ft | 536 kts | 57° |
| 2026-05-08 07:47 | -25.49195 | 158.17956 | 39079 ft | 536 kts | 57° |
| 2026-05-08 07:48 | -25.46205 | 158.25510 | 39069 ft | 536 kts | 57° |
| 2026-05-08 07:48 | -25.43206 | 158.33072 | 39073 ft | 536 kts | 57° |
| 2026-05-08 07:49 | -25.40207 | 158.40618 | 39070 ft | 536 kts | 57° |
| 2026-05-08 07:49 | -25.37199 | 158.48178 | 39072 ft | 536 kts | 57° |
| 2026-05-08 07:50 | -25.34191 | 158.55721 | 39068 ft | 536 kts | 57° |
| 2026-05-08 07:50 | -25.31174 | 158.63274 | 39066 ft | 536 kts | 57° |
| 2026-05-08 07:51 | -25.28159 | 158.70810 | 39067 ft | 536 kts | 57° |
| 2026-05-08 07:51 | -25.25156 | 158.78301 | 39068 ft | 536 kts | 57° |
| 2026-05-08 07:52 | -25.22131 | 158.85835 | 39069 ft | 536 kts | 57° |
| 2026-05-08 07:52 | -25.19100 | 158.93370 | 39065 ft | 536 kts | 57° |
| 2026-05-08 07:53 | -25.16072 | 159.00882 | 39064 ft | 536 kts | 57° |
| 2026-05-08 07:53 | -25.13036 | 159.08404 | 39063 ft | 536 kts | 57° |
| 2026-05-08 07:54 | -25.10001 | 159.15911 | 39062 ft | 535 kts | 57° |
| 2026-05-08 07:54 | -25.06963 | 159.23411 | 39059 ft | 535 kts | 57° |
| 2026-05-08 07:55 | -25.03922 | 159.30903 | 39055 ft | 535 kts | 57° |
| 2026-05-08 07:55 | -25.00881 | 159.38385 | 39052 ft | 535 kts | 57° |
| 2026-05-08 07:56 | -24.97837 | 159.45860 | 39055 ft | 534 kts | 57° |
| 2026-05-08 07:56 | -24.94791 | 159.53327 | 39054 ft | 534 kts | 57° |
| 2026-05-08 07:57 | -24.91764 | 159.60736 | 39047 ft | 533 kts | 57° |
| 2026-05-08 07:57 | -24.88717 | 159.68181 | 39043 ft | 533 kts | 57° |
| 2026-05-08 07:58 | -24.85667 | 159.75619 | 39039 ft | 533 kts | 57° |
| 2026-05-08 07:58 | -24.82615 | 159.83051 | 39041 ft | 533 kts | 57° |
| 2026-05-08 07:59 | -24.79561 | 159.90475 | 39038 ft | 532 kts | 57° |
| 2026-05-08 07:59 | -24.76500 | 159.97902 | 39037 ft | 532 kts | 57° |
| 2026-05-08 08:00 | -24.73442 | 160.05312 | 39038 ft | 532 kts | 57° |
| 2026-05-08 08:00 | -24.70379 | 160.12721 | 39037 ft | 532 kts | 57° |
| 2026-05-08 08:01 | -24.67309 | 160.20134 | 39033 ft | 532 kts | 57° |
| 2026-05-08 08:01 | -24.64239 | 160.27539 | 39030 ft | 532 kts | 57° |
| 2026-05-08 08:02 | -24.61167 | 160.34944 | 39030 ft | 532 kts | 57° |
| 2026-05-08 08:02 | -24.58086 | 160.42342 | 39035 ft | 532 kts | 57° |
| 2026-05-08 08:03 | -24.54988 | 160.49727 | 39035 ft | 532 kts | 57° |
| 2026-05-08 08:03 | -24.51892 | 160.57116 | 39032 ft | 532 kts | 57° |
| 2026-05-08 08:04 | -24.48795 | 160.64500 | 39033 ft | 532 kts | 57° |
| 2026-05-08 08:04 | -24.45714 | 160.71836 | 39037 ft | 532 kts | 57° |
| 2026-05-08 08:05 | -24.42606 | 160.79220 | 39039 ft | 532 kts | 57° |
| 2026-05-08 08:05 | -24.39498 | 160.86592 | 39039 ft | 532 kts | 57° |
| 2026-05-08 08:06 | -24.36388 | 160.93958 | 39036 ft | 532 kts | 57° |
| 2026-05-08 08:06 | -24.33272 | 161.01325 | 39039 ft | 532 kts | 57° |
| 2026-05-08 08:07 | -24.30156 | 161.08680 | 39037 ft | 532 kts | 57° |
| 2026-05-08 08:07 | -24.27560 | 161.14800 | 39036 ft | 532 kts | 57° |
| 2026-05-08 08:08 | -24.24436 | 161.22152 | 39036 ft | 532 kts | 57° |
| 2026-05-08 08:08 | -24.21313 | 161.29491 | 39032 ft | 532 kts | 57° |
| 2026-05-08 08:09 | -24.18182 | 161.36835 | 39037 ft | 531 kts | 57° |
| 2026-05-08 08:09 | -24.15053 | 161.44163 | 39026 ft | 531 kts | 57° |
| 2026-05-08 08:10 | -24.11922 | 161.51484 | 39029 ft | 531 kts | 57° |
| 2026-05-08 08:10 | -24.08789 | 161.58800 | 39029 ft | 531 kts | 57° |
| 2026-05-08 08:11 | -24.05652 | 161.66110 | 39034 ft | 531 kts | 57° |
| 2026-05-08 08:11 | -24.02509 | 161.73424 | 39030 ft | 531 kts | 57° |
| 2026-05-08 08:12 | -23.99364 | 161.80733 | 39027 ft | 531 kts | 57° |
| 2026-05-08 08:12 | -23.96237 | 161.87985 | 39024 ft | 531 kts | 57° |
| 2026-05-08 08:13 | -23.93085 | 161.95286 | 39024 ft | 531 kts | 57° |
| 2026-05-08 08:13 | -23.89924 | 162.02596 | 39025 ft | 531 kts | 57° |
| 2026-05-08 08:14 | -23.86763 | 162.09894 | 39025 ft | 531 kts | 58° |
| 2026-05-08 08:14 | -23.83598 | 162.17190 | 39029 ft | 532 kts | 57° |
| 2026-05-08 08:15 | -23.80423 | 162.24497 | 39031 ft | 532 kts | 58° |
| 2026-05-08 08:15 | -23.77247 | 162.31795 | 39032 ft | 532 kts | 58° |
| 2026-05-08 08:16 | -23.74069 | 162.39087 | 39032 ft | 532 kts | 58° |
| 2026-05-08 08:16 | -23.70908 | 162.46329 | 39031 ft | 532 kts | 58° |
| 2026-05-08 08:17 | -23.67720 | 162.53619 | 39034 ft | 532 kts | 58° |
| 2026-05-08 08:17 | -23.64530 | 162.60905 | 39033 ft | 532 kts | 58° |
| 2026-05-08 08:18 | -23.61337 | 162.68186 | 39038 ft | 532 kts | 58° |
| 2026-05-08 08:18 | -23.58140 | 162.75465 | 39037 ft | 532 kts | 58° |
| 2026-05-08 08:19 | -23.54939 | 162.82739 | 39039 ft | 532 kts | 58° |
| 2026-05-08 08:19 | -23.51740 | 162.90001 | 39037 ft | 531 kts | 58° |
| 2026-05-08 08:20 | -23.48540 | 162.97257 | 39036 ft | 531 kts | 58° |
| 2026-05-08 08:20 | -23.45341 | 163.04504 | 39034 ft | 531 kts | 58° |
| 2026-05-08 08:21 | -23.42142 | 163.11752 | 39033 ft | 530 kts | 58° |
| 2026-05-08 08:21 | -23.38945 | 163.18986 | 39028 ft | 530 kts | 58° |
| 2026-05-08 08:22 | -23.35750 | 163.26205 | 39029 ft | 529 kts | 58° |
| 2026-05-08 08:22 | -23.32554 | 163.33415 | 39027 ft | 529 kts | 58° |
| 2026-05-08 08:23 | -23.29354 | 163.40621 | 39024 ft | 528 kts | 58° |
| 2026-05-08 08:23 | -23.26177 | 163.47767 | 39026 ft | 528 kts | 58° |
| 2026-05-08 08:24 | -23.22978 | 163.54951 | 39023 ft | 528 kts | 58° |
| 2026-05-08 08:24 | -23.19777 | 163.62129 | 39025 ft | 527 kts | 58° |
| 2026-05-08 08:25 | -23.16573 | 163.69301 | 39021 ft | 527 kts | 58° |
| 2026-05-08 08:25 | -23.13366 | 163.76471 | 39021 ft | 527 kts | 58° |
| 2026-05-08 08:26 | -23.10157 | 163.83633 | 39024 ft | 527 kts | 58° |
| 2026-05-08 08:26 | -23.06948 | 163.90786 | 39023 ft | 526 kts | 58° |
| 2026-05-08 08:27 | -23.03741 | 163.97924 | 39024 ft | 526 kts | 58° |